Time;durP1;ratioP1;P1;durP2;ratioP2;P2;SDS_P1;SDS_P2;PMS_P1;PMS_P2;Temp;Humidity;BMP_temperature;BMP_pressure;BME280_temperature;BME280_humidity;BME280_pressure;Samples;Min_cycle;Max_cycle;Signal;HPM_P1;HPM_P2
2023/01/06 00:00:43;;;;;;;8.75;2.78;;;;;;;9.77;100.00;101775.38;6157119;23;20014;-76
2023/01/06 00:03:10;;;;;;;6.20;3.25;;;;;;;9.78;100.00;101774.22;6157936;23;20053;-76
2023/01/06 00:05:36;;;;;;;14.90;2.72;;;;;;;9.81;100.00;101775.31;6158106;23;20029;-76
2023/01/06 00:08:03;;;;;;;8.05;2.35;;;;;;;9.80;100.00;101769.22;6158192;23;20018;-76
2023/01/06 00:10:29;;;;;;;13.05;2.60;;;;;;;9.80;100.00;101766.56;6158937;23;20017;-77
2023/01/06 00:12:56;;;;;;;6.60;2.30;;;;;;;9.82;100.00;101774.16;6158896;23;20010;-76
2023/01/06 00:15:22;;;;;;;7.95;1.85;;;;;;;9.81;100.00;101767.31;6159644;23;20018;-77
2023/01/06 00:17:49;;;;;;;7.57;2.33;;;;;;;9.81;100.00;101762.00;6159570;23;20467;-76
2023/01/06 00:20:15;;;;;;;9.32;2.10;;;;;;;9.79;100.00;101749.13;6159664;23;20018;-77
2023/01/06 00:22:42;;;;;;;5.82;2.17;;;;;;;9.79;100.00;101748.38;6159769;23;20470;-77
2023/01/06 00:25:09;;;;;;;6.75;1.90;;;;;;;9.77;100.00;101740.78;6158990;23;20026;-76
2023/01/06 00:27:37;;;;;;;8.18;2.13;;;;;;;9.77;100.00;101750.69;6159716;23;20077;-77
2023/01/06 00:30:06;;;;;;;3.00;1.75;;;;;;;9.75;100.00;101743.13;6159550;23;20018;-77
2023/01/06 00:32:33;;;;;;;2.88;2.25;;;;;;;9.76;100.00;101741.19;6159366;23;20613;-77
2023/01/06 00:34:59;;;;;;;3.95;2.65;;;;;;;9.75;100.00;101751.09;6159529;23;20029;-77
2023/01/06 00:37:26;;;;;;;5.53;3.45;;;;;;;9.76;100.00;101746.53;6159507;23;20018;-77
2023/01/06 00:39:52;;;;;;;3.90;3.10;;;;;;;9.75;100.00;101737.03;6132805;23;20025;-77
2023/01/06 00:42:21;;;;;;;5.55;3.47;;;;;;;9.74;100.00;101752.25;6133065;23;20028;-76
2023/01/06 00:44:48;;;;;;;5.40;3.80;;;;;;;9.73;100.00;101739.34;6159809;23;20105;-77
2023/01/06 00:47:14;;;;;;;3.88;3.45;;;;;;;9.73;100.00;101755.31;6159408;23;20018;-76
2023/01/06 00:49:41;;;;;;;4.63;3.65;;;;;;;9.74;100.00;101757.56;6159762;23;20014;-76
2023/01/06 00:52:08;;;;;;;8.50;4.18;;;;;;;9.73;100.00;101760.63;6132871;23;20046;-76
2023/01/06 00:54:35;;;;;;;6.88;4.07;;;;;;;9.73;100.00;101761.38;6133063;23;20503;-76
2023/01/06 00:57:05;;;;;;;5.20;4.63;;;;;;;9.74;100.00;101762.88;6159603;23;20455;-76
2023/01/06 00:59:32;;;;;;;4.97;4.07;;;;;;;9.74;100.00;101759.47;6108489;23;20022;-76
2023/01/06 01:02:01;;;;;;;7.32;4.18;;;;;;;9.73;100.00;101756.06;6132615;23;20022;-76
2023/01/06 01:04:28;;;;;;;6.35;3.70;;;;;;;9.74;100.00;101749.59;6159202;23;20026;-77
2023/01/06 01:06:55;;;;;;;7.90;4.03;;;;;;;9.74;100.00;101754.16;6133452;23;20448;-76
2023/01/06 01:09:24;;;;;;;8.38;4.25;;;;;;;9.73;100.00;101748.09;6158919;23;20101;-76
2023/01/06 01:12:11;;;;;;;7.23;3.87;;;;;;;9.72;100.00;101754.56;6159544;23;20014;-77
2023/01/06 01:14:46;;;;;;;5.88;3.28;;;;;;;9.73;100.00;101753.41;6157933;23;20026;-76
2023/01/06 01:17:25;;;;;;;5.78;3.10;;;;;;;9.74;100.00;101751.50;6159393;23;20022;-76
2023/01/06 01:19:54;;;;;;;5.70;2.88;;;;;;;9.74;100.00;101754.91;6159272;23;20148;-77
2023/01/06 01:22:22;;;;;;;3.45;3.00;;;;;;;9.74;100.00;101752.25;6156290;23;20029;-77
2023/01/06 01:24:49;;;;;;;7.28;2.72;;;;;;;9.73;100.00;101750.75;6159371;23;20025;-77
2023/01/06 01:27:16;;;;;;;4.13;2.80;;;;;;;9.74;100.00;101741.63;6133292;23;20018;-76
2023/01/06 01:29:44;;;;;;;7.15;2.60;;;;;;;9.75;100.00;101742.38;6133560;23;20101;-76
2023/01/06 01:32:10;;;;;;;5.40;2.65;;;;;;;9.76;100.00;101738.53;6159566;23;20022;-76
2023/01/06 01:34:37;;;;;;;4.20;2.55;;;;;;;9.76;100.00;101730.56;6159826;23;20053;-76
2023/01/06 01:37:04;;;;;;;6.03;2.90;;;;;;;9.76;100.00;101727.91;6159259;23;20062;-77
2023/01/06 01:39:31;;;;;;;6.22;2.60;;;;;;;9.76;100.00;101728.66;6159406;23;20665;-76
2023/01/06 01:41:58;;;;;;;4.20;2.70;;;;;;;9.76;100.00;101720.69;6157787;23;20352;-77
2023/01/06 01:44:52;;;;;;;5.15;2.72;;;;;;;9.77;100.00;101726.75;6159391;23;20077;-77
2023/01/06 01:47:27;;;;;;;3.55;2.15;;;;;;;9.76;100.00;101718.03;6132642;23;20034;-77
2023/01/06 01:49:58;;;;;;;5.10;2.58;;;;;;;9.75;100.00;101726.41;6133291;23;20017;-77
2023/01/06 01:52:26;;;;;;;5.87;3.17;;;;;;;9.75;100.00;101726.41;6132583;23;20025;-76
2023/01/06 01:54:54;;;;;;;4.38;2.33;;;;;;;9.75;100.00;101718.44;6132720;23;20037;-76
2023/01/06 01:57:31;;;;;;;5.07;2.28;;;;;;;9.76;100.00;101722.59;6157589;23;20018;-77
2023/01/06 01:59:59;;;;;;;2.53;1.90;;;;;;;9.75;100.00;101715.78;6159501;23;20482;-77
2023/01/06 02:02:29;;;;;;;5.68;2.30;;;;;;;9.76;100.00;101719.94;6132580;23;20025;-77
2023/01/06 02:04:56;;;;;;;3.57;1.87;;;;;;;9.77;100.00;101722.19;6154941;23;20348;-77
2023/01/06 02:07:25;;;;;;;4.38;2.08;;;;;;;9.78;100.00;101721.03;6130460;23;20018;-76
2023/01/06 02:10:01;;;;;;;3.78;2.42;;;;;;;9.78;100.00;101715.72;6108204;23;20333;-77
2023/01/06 02:12:30;;;;;;;3.80;2.10;;;;;;;9.76;100.00;101710.03;6131150;23;20018;-77
2023/01/06 02:14:57;;;;;;;3.08;2.25;;;;;;;9.76;100.00;101699.41;6157974;23;20375;-77
2023/01/06 02:17:44;;;;;;;6.38;2.22;;;;;;;9.77;100.00;101700.16;6132673;23;20498;-77
2023/01/06 02:20:36;;;;;;;3.58;1.73;;;;;;;9.78;100.00;101699.00;6132503;23;20448;-76
2023/01/06 02:23:42;;;;;;;4.75;2.22;;;;;;;9.79;100.00;101700.50;6132596;23;20022;-76
2023/01/06 02:26:27;;;;;;;3.17;2.00;;;;;;;9.79;100.00;101692.53;6132675;23;20046;-77
2023/01/06 02:29:28;;;;;;;2.88;1.88;;;;;;;9.78;100.00;101681.13;6159226;23;20018;-77
2023/01/06 02:32:07;;;;;;;1.88;1.77;;;;;;;9.77;100.00;101686.88;6158954;23;20527;-76
2023/01/06 02:35:08;;;;;;;2.50;2.10;;;;;;;9.76;100.00;101677.38;6132159;23;20018;-77
2023/01/06 02:37:51;;;;;;;2.83;1.90;;;;;;;9.78;100.00;101680.38;6157221;23;20022;-76
2023/01/06 02:40:23;;;;;;;;;;;;;;;9.77;100.00;101671.66;6132729;23;20417;-76
2023/01/06 02:43:06;;;;;;;5.00;2.00;;;;;;;9.77;100.00;101670.91;6132695;23;19927;-77
2023/01/06 02:46:06;;;;;;;4.90;1.90;;;;;;;9.77;100.00;101652.28;6158580;23;20021;-77
2023/01/06 02:48:47;;;;;;;4.50;2.13;;;;;;;9.77;100.00;101652.28;6156593;23;20029;-77
2023/01/06 02:51:14;;;;;;;6.80;2.22;;;;;;;9.77;100.00;101639.00;6158782;23;20046;-76
2023/01/06 02:54:07;;;;;;;2.63;2.10;;;;;;;9.77;100.00;101641.66;6132509;23;20418;-76
2023/01/06 02:56:41;;;;;;;2.53;1.90;;;;;;;9.76;100.00;101638.25;6132167;23;20022;-77
2023/01/06 02:59:22;;;;;;;3.03;2.20;;;;;;;9.76;100.00;101642.81;6158555;23;20631;-77
2023/01/06 03:01:53;;;;;;;8.65;2.35;;;;;;;9.74;100.00;101640.56;6158551;23;20431;-77
2023/01/06 03:04:42;;;;;;;3.70;2.85;;;;;;;9.74;100.00;101632.59;6156238;23;20032;-77
2023/01/06 03:07:12;;;;;;;6.80;2.60;;;;;;;9.73;100.00;101625.03;6132255;23;20022;-77
2023/01/06 03:09:39;;;;;;;4.53;2.40;;;;;;;9.73;100.00;101620.47;6158541;23;20024;-77
2023/01/06 03:12:35;;;;;;;5.57;2.90;;;;;;;9.74;100.00;101621.22;6158573;23;20069;-77
2023/01/06 03:15:02;;;;;;;3.00;2.80;;;;;;;9.73;100.00;101609.81;6131741;23;20054;-77
2023/01/06 03:17:29;;;;;;;4.13;2.92;;;;;;;9.73;100.00;101607.16;6131926;23;20028;-76
2023/01/06 03:19:56;;;;;;;7.55;3.30;;;;;;;9.73;99.98;101601.84;6156214;23;20022;-77
2023/01/06 03:22:24;;;;;;;3.20;3.00;;;;;;;9.72;99.92;101595.03;6131830;23;20097;-77
2023/01/06 03:24:51;;;;;;;5.55;3.33;;;;;;;9.73;99.91;101585.91;6156514;23;20050;-77
2023/01/06 03:27:24;;;;;;;3.95;3.00;;;;;;;9.72;99.70;101581.00;6131760;23;20046;-77
2023/01/06 03:29:51;;;;;;;4.60;2.55;;;;;;;9.71;99.75;101580.25;6131969;23;20109;-76
2023/01/06 03:32:37;;;;;;;3.13;2.92;;;;;;;9.70;99.82;101579.50;6155577;23;20018;-77
2023/01/06 03:35:24;;;;;;;2.60;2.20;;;;;;;9.69;99.65;101578.00;6131930;23;20444;-77
2023/01/06 03:38:17;;;;;;;2.67;2.40;;;;;;;9.70;99.68;101574.19;6131809;23;20240;-76
2023/01/06 03:40:54;;;;;;;5.05;2.40;;;;;;;9.69;99.26;101570.00;6131840;23;20032;-79
2023/01/06 03:43:51;;;;;;;3.20;2.30;;;;;;;9.70;99.07;101576.09;6131543;23;20021;-78
2023/01/06 03:46:17;;;;;;;3.92;2.20;;;;;;;9.70;98.67;101574.19;6133156;23;20032;-78
2023/01/06 03:48:54;;;;;;;3.60;2.05;;;;;;;9.70;98.86;101579.50;6132745;23;20046;-78
2023/01/06 03:51:28;;;;;;;1.98;1.88;;;;;;;9.70;98.21;101562.78;6133252;23;20432;-78
2023/01/06 03:54:20;;;;;;;2.13;1.80;;;;;;;9.70;98.43;101568.84;6133186;23;20471;-78
2023/01/06 03:57:10;;;;;;;1.85;1.73;;;;;;;9.71;98.09;101564.28;6109499;23;20105;-78
2023/01/06 03:59:43;;;;;;;3.38;1.98;;;;;;;9.71;97.89;101551.00;6159558;23;20018;-78
2023/01/06 04:02:12;;;;;;;3.45;1.90;;;;;;;9.73;97.75;101550.59;6132141;23;20084;-78
2023/01/06 04:04:40;;;;;;;3.80;1.60;;;;;;;9.72;97.09;101541.09;6133448;23;20030;-78
2023/01/06 04:07:07;;;;;;;2.30;1.75;;;;;;;9.72;97.19;101541.84;6133158;23;20017;-78
2023/01/06 04:09:37;;;;;;;3.17;1.77;;;;;;;9.71;97.16;101527.06;6133475;23;20025;-78
2023/01/06 04:14:52;;;;;;;3.78;1.77;;;;;;;9.70;96.90;101528.97;6133093;23;20046;-78
2023/01/06 04:17:18;;;;;;;3.08;1.70;;;;;;;9.72;97.15;101527.81;6132640;23;20552;-77
2023/01/06 04:19:45;;;;;;;2.60;1.75;;;;;;;9.70;96.63;101528.97;6133122;23;20025;-78
2023/01/06 04:22:12;;;;;;;3.97;1.90;;;;;;;9.73;96.65;101521.34;6132689;23;20026;-78
2023/01/06 04:24:38;;;;;;;5.70;2.47;;;;;;;9.74;96.63;101522.84;6108957;23;20026;-78
2023/01/06 04:27:06;;;;;;;3.60;2.05;;;;;;;9.75;96.65;101529.66;6159547;23;20022;-78
2023/01/06 04:29:33;;;;;;;3.53;1.98;;;;;;;9.76;96.39;101515.19;6132893;23;20106;-78
2023/01/06 04:31:59;;;;;;;2.83;1.52;;;;;;;9.75;96.47;101508.38;6132378;23;20134;-78
2023/01/06 04:34:26;;;;;;;2.92;1.80;;;;;;;9.75;96.56;101503.81;6159445;23;20093;-78
2023/01/06 04:36:54;;;;;;;3.40;2.00;;;;;;;9.77;96.75;101508.72;6132849;23;20022;-78
2023/01/06 04:39:20;;;;;;;2.72;1.92;;;;;;;9.75;96.33;101501.16;6108709;23;20018;-78
2023/01/06 04:41:47;;;;;;;8.10;1.50;;;;;;;9.77;96.62;101500.72;6159306;23;20022;-78
2023/01/06 04:44:13;;;;;;;3.97;1.92;;;;;;;9.76;96.86;101504.56;6159236;23;20049;-78
2023/01/06 04:46:40;;;;;;;3.70;1.65;;;;;;;9.75;97.19;101497.75;6159466;23;20054;-78
2023/01/06 04:49:07;;;;;;;1.65;1.55;;;;;;;9.75;97.41;101490.50;6132986;23;20456;-78
2023/01/06 04:51:34;;;;;;;2.45;1.80;;;;;;;9.75;97.63;101476.47;6132832;23;20026;-78
2023/01/06 04:54:00;;;;;;;3.28;2.00;;;;;;;9.72;97.95;101477.28;6132959;23;20104;-78
2023/01/06 04:56:27;;;;;;;4.45;1.70;;;;;;;9.70;97.99;101478.47;6159422;23;20018;-78
2023/01/06 04:58:55;;;;;;;1.98;1.67;;;;;;;9.68;97.82;101470.16;6159447;23;20018;-78
2023/01/06 05:01:23;;;;;;;2.17;1.98;;;;;;;9.67;98.05;101466.00;6158740;23;20025;-78
2023/01/06 05:03:50;;;;;;;5.05;1.88;;;;;;;9.68;98.43;101470.16;6159373;23;20411;-78
2023/01/06 05:06:18;;;;;;;4.85;2.05;;;;;;;9.67;98.17;101481.19;6159430;23;20467;-78
2023/01/06 05:08:45;;;;;;;3.65;1.70;;;;;;;9.67;97.78;101467.91;6159869;23;20025;-78
2023/01/06 05:11:17;;;;;;;1.60;1.50;;;;;;;9.68;97.83;101464.84;6159639;23;20022;-78
2023/01/06 05:13:44;;;;;;;2.10;2.00;;;;;;;9.69;97.55;101473.56;6156507;23;20022;-78
2023/01/06 05:16:22;;;;;;;3.50;1.70;;;;;;;9.69;97.80;101466.31;6158975;23;20021;-78
2023/01/06 05:18:48;;;;;;;2.40;1.98;;;;;;;9.72;97.64;101456.78;6159779;23;20018;-78
2023/01/06 05:21:15;;;;;;;1.83;1.70;;;;;;;9.76;97.36;101475.31;6133228;23;20105;-78
2023/01/06 05:23:42;;;;;;;1.77;1.67;;;;;;;9.74;97.29;101457.09;6134018;23;20046;-79
2023/01/06 05:26:14;;;;;;;1.95;1.73;;;;;;;9.76;97.20;101470.00;6159761;23;20525;-78
2023/01/06 05:28:40;;;;;;;3.67;1.90;;;;;;;9.77;97.05;101463.50;6159831;23;20014;-78
2023/01/06 05:31:09;;;;;;;1.77;1.50;;;;;;;9.77;97.20;101466.16;6160582;23;20022;-79
2023/01/06 05:33:36;;;;;;;3.03;1.60;;;;;;;9.78;97.21;101462.34;6160429;23;20093;-79
2023/01/06 05:36:08;;;;;;;3.25;1.80;;;;;;;9.78;97.21;101457.03;6159355;23;20021;-78
2023/01/06 05:38:35;;;;;;;4.00;1.90;;;;;;;9.78;97.73;101470.31;6159275;23;20014;-78
2023/01/06 05:41:02;;;;;;;2.17;2.00;;;;;;;9.74;98.12;101459.78;6159128;23;20014;-77
2023/01/06 05:43:29;;;;;;;1.83;1.73;;;;;;;9.74;98.23;101465.09;6132541;23;20446;-77
2023/01/06 05:45:55;;;;;;;3.38;1.92;;;;;;;9.70;98.09;101465.16;6159192;23;20417;-77
2023/01/06 05:48:24;;;;;;;6.07;1.83;;;;;;;9.69;99.15;101479.63;6159034;23;20014;-77
2023/01/06 05:50:51;;;;;;;4.00;2.03;;;;;;;9.68;99.79;101469.41;6159274;23;20029;-78
2023/01/06 05:53:18;;;;;;;3.70;1.90;;;;;;;9.67;100.00;101463.34;6159027;23;20383;-78
2023/01/06 05:55:44;;;;;;;4.03;1.83;;;;;;;9.66;100.00;101463.75;6159517;23;20014;-78
2023/01/06 05:58:10;;;;;;;2.55;1.85;;;;;;;9.64;99.84;101453.53;6158679;23;20014;-78
2023/01/06 06:00:37;;;;;;;3.20;1.83;;;;;;;9.64;100.00;101453.53;6159202;23;20046;-78
2023/01/06 06:03:04;;;;;;;1.80;1.70;;;;;;;9.61;100.00;101464.25;6159120;23;20014;-77
2023/01/06 06:05:30;;;;;;;2.00;1.88;;;;;;;9.61;100.00;101453.59;6133077;23;20018;-77
2023/01/06 06:07:57;;;;;;;1.70;1.60;;;;;;;9.57;100.00;101452.97;6158609;23;20533;-77
2023/01/06 06:10:23;;;;;;;2.58;2.05;;;;;;;9.57;100.00;101450.31;6158846;23;20440;-76
2023/01/06 06:12:51;;;;;;;1.92;1.77;;;;;;;9.56;100.00;101468.16;6158693;23;20069;-77
2023/01/06 06:15:18;;;;;;;1.83;1.73;;;;;;;9.56;100.00;101462.09;6131979;23;20553;-76
2023/01/06 06:17:45;;;;;;;2.72;1.90;;;;;;;9.54;100.00;101459.84;6159270;23;20022;-76
2023/01/06 06:20:11;;;;;;;3.42;1.98;;;;;;;9.52;100.00;101467.50;6159109;23;20024;-77
2023/01/06 06:22:38;;;;;;;2.05;1.73;;;;;;;9.52;100.00;101464.84;6157686;23;20084;-77
2023/01/06 06:25:04;;;;;;;2.60;1.90;;;;;;;9.53;100.00;101470.91;6158610;23;20022;-76
2023/01/06 06:27:31;;;;;;;3.05;2.10;;;;;;;9.54;100.00;101461.78;6158492;23;20463;-77
2023/01/06 06:29:57;;;;;;;1.58;1.55;;;;;;;9.53;100.00;101466.34;6159008;23;20205;-77
2023/01/06 06:32:24;;;;;;;1.85;1.75;;;;;;;9.54;100.00;101467.84;6160074;23;20038;-77
2023/01/06 06:34:50;;;;;;;2.83;1.90;;;;;;;9.56;100.00;101457.53;6159752;23;20475;-77
2023/01/06 06:37:17;;;;;;;4.15;1.83;;;;;;;9.58;100.00;101454.47;6133642;23;20022;-77
2023/01/06 06:39:43;;;;;;;4.78;2.00;;;;;;;9.58;100.00;101463.19;6159959;23;20475;-77
2023/01/06 06:42:10;;;;;;;2.80;1.77;;;;;;;9.59;100.00;101461.28;6159295;23;20524;-77
2023/01/06 06:44:36;;;;;;;4.78;2.25;;;;;;;9.60;100.00;101474.13;6133362;23;20018;-77
2023/01/06 06:47:03;;;;;;;2.42;1.73;;;;;;;9.60;100.00;101482.09;6133648;23;20018;-77
2023/01/06 06:49:29;;;;;;;2.53;1.90;;;;;;;9.60;100.00;101482.09;6133398;23;20022;-78
2023/01/06 06:51:57;;;;;;;2.53;2.33;;;;;;;9.57;100.00;101476.88;6159353;23;20030;-77
2023/01/06 06:54:23;;;;;;;3.58;2.40;;;;;;;9.55;100.00;101472.00;6159566;23;20018;-76
2023/01/06 06:56:50;;;;;;;2.70;2.50;;;;;;;9.52;100.00;101480.03;6159060;23;20014;-76
2023/01/06 06:59:16;;;;;;;4.88;2.22;;;;;;;9.50;100.00;101459.19;6159701;23;20022;-76
2023/01/06 07:01:43;;;;;;;3.92;2.20;;;;;;;9.50;100.00;101479.69;6159701;23;20014;-76
2023/01/06 07:04:10;;;;;;;4.65;2.75;;;;;;;9.50;100.00;101479.69;6159527;23;20018;-76
2023/01/06 07:06:36;;;;;;;2.65;2.45;;;;;;;9.47;100.00;101478.63;6159615;23;20396;-77
2023/01/06 07:09:03;;;;;;;2.60;2.40;;;;;;;9.46;100.00;101479.78;6159375;23;20028;-76
2023/01/06 07:11:29;;;;;;;3.67;2.67;;;;;;;9.45;100.00;101491.56;6159293;23;20448;-75
2023/01/06 07:13:56;;;;;;;2.97;2.70;;;;;;;9.44;100.00;101498.03;6159500;23;20021;-76
2023/01/06 07:16:25;;;;;;;2.60;2.30;;;;;;;9.44;100.00;101494.63;6159314;23;20018;-76
2023/01/06 07:18:52;;;;;;;2.60;2.40;;;;;;;9.43;100.00;101511.75;6160155;23;20356;-77
2023/01/06 07:21:19;;;;;;;3.28;2.67;;;;;;;9.42;100.00;101508.34;6135165;23;20458;-76
2023/01/06 07:23:45;;;;;;;2.50;2.30;;;;;;;9.40;100.00;101512.56;6134932;23;20010;-78
2023/01/06 07:26:14;;;;;;;2.53;2.28;;;;;;;9.40;100.00;101507.25;6159913;23;20017;-78
2023/01/06 07:28:40;;;;;;;2.50;2.30;;;;;;;9.41;100.00;101527.34;6160859;23;20042;-78
2023/01/06 07:31:07;;;;;;;2.38;2.17;;;;;;;9.41;100.00;101528.09;6160390;23;20445;-79
2023/01/06 07:33:34;;;;;;;2.15;2.00;;;;;;;9.41;100.00;101522.03;6134690;23;20025;-80
2023/01/06 07:36:00;;;;;;;3.25;1.95;;;;;;;9.40;100.00;101529.25;6158663;23;20022;-79
2023/01/06 07:38:27;;;;;;;2.95;1.73;;;;;;;9.38;100.00;101533.47;6160819;23;20029;-79
2023/01/06 07:40:59;;;;;;;2.03;1.75;;;;;;;9.35;100.00;101537.72;6159925;23;20021;-78
2023/01/06 07:43:25;;;;;;;;;;;;;;;9.32;100.00;101533.22;6161605;23;20014;-79
2023/01/06 07:45:52;;;;;;;2.20;1.55;;;;;;;9.33;100.00;101542.69;6159971;23;19920;-78
2023/01/06 07:48:18;;;;;;;2.20;2.10;;;;;;;9.35;100.00;101548.34;6158643;23;20026;-76
2023/01/06 07:50:45;;;;;;;4.18;2.38;;;;;;;9.34;100.00;101558.22;6161016;23;20467;-76
2023/01/06 07:53:11;;;;;;;2.20;2.10;;;;;;;9.34;100.00;101560.88;6160666;23;20448;-79
2023/01/06 07:55:39;;;;;;;2.50;2.28;;;;;;;9.32;100.00;101573.81;6134952;23;20037;-78
2023/01/06 07:58:09;;;;;;;2.10;2.00;;;;;;;9.32;100.00;101587.09;6160341;23;20109;-79
2023/01/06 08:00:35;;;;;;;2.10;1.95;;;;;;;9.33;100.00;101595.84;6160651;23;20037;-78
2023/01/06 08:03:04;;;;;;;2.45;2.28;;;;;;;9.32;100.00;101597.75;6159887;23;20054;-79
2023/01/06 08:05:31;;;;;;;2.65;2.45;;;;;;;9.34;100.00;101607.97;6160760;23;20423;-81
2023/01/06 08:07:58;;;;;;;2.90;2.38;;;;;;;9.32;100.00;101621.66;6159780;23;20045;-80
2023/01/06 08:10:25;;;;;;;2.85;2.60;;;;;;;9.30;100.00;101618.66;6160534;23;20097;-81
2023/01/06 08:12:51;;;;;;;2.65;2.55;;;;;;;9.28;100.00;101615.66;6160342;23;20033;-81
2023/01/06 08:15:18;;;;;;;4.85;2.75;;;;;;;9.26;100.00;101614.56;6160414;23;20396;-81
2023/01/06 08:17:44;;;;;;;4.20;2.38;;;;;;;9.24;100.00;101622.94;6160535;23;20022;-82
2023/01/06 08:20:11;;;;;;;4.15;2.60;;;;;;;9.25;100.00;101626.34;6158080;23;20119;-82
2023/01/06 08:22:37;;;;;;;4.30;2.72;;;;;;;9.27;100.00;101630.09;6133840;23;20018;-81
2023/01/06 08:25:04;;;;;;;3.88;2.50;;;;;;;9.31;100.00;101633.44;6158083;23;20022;-79
2023/01/06 08:27:30;;;;;;;2.60;2.40;;;;;;;9.31;100.00;101644.06;6134271;23;20025;-80
2023/01/06 08:29:57;;;;;;;2.63;2.30;;;;;;;9.34;100.00;101650.47;6133598;23;20085;-83
2023/01/06 08:32:23;;;;;;;2.53;2.30;;;;;;;9.31;100.00;101653.94;6160307;23;20077;-80
2023/01/06 08:34:50;;;;;;;3.55;2.00;;;;;;;9.27;100.00;101647.94;6160031;23;20435;-82
2023/01/06 08:37:16;;;;;;;4.47;2.10;;;;;;;9.23;100.00;101655.22;6159910;23;20018;-81
2023/01/06 08:39:43;;;;;;;4.43;2.28;;;;;;;9.22;100.00;101659.03;6134524;23;20097;-82
2023/01/06 08:42:10;;;;;;;4.30;2.58;;;;;;;9.21;100.00;101660.19;6160352;23;20010;-81
2023/01/06 08:44:36;;;;;;;2.83;2.30;;;;;;;9.20;100.00;101669.31;6160311;23;20021;-81
2023/01/06 08:47:03;;;;;;;3.78;2.55;;;;;;;9.16;100.00;101666.75;6160148;23;20026;-81
2023/01/06 08:49:30;;;;;;;5.97;2.05;;;;;;;9.14;100.00;101668.31;6160575;23;20014;-82
2023/01/06 08:51:56;;;;;;;4.05;2.28;;;;;;;9.13;100.00;101667.56;6159891;23;20018;-80
2023/01/06 08:54:23;;;;;;;5.25;2.05;;;;;;;9.13;100.00;101675.53;6134472;23;20081;-80
2023/01/06 08:56:52;;;;;;;4.18;2.35;;;;;;;9.11;100.00;101677.84;6160132;23;20022;-80
2023/01/06 08:59:18;;;;;;;5.90;1.80;;;;;;;9.10;100.00;101680.91;6160617;23;20014;-81
2023/01/06 09:01:45;;;;;;;6.00;1.88;;;;;;;9.10;100.00;101694.94;6134793;23;20014;-81
2023/01/06 09:04:22;;;;;;;4.25;1.48;;;;;;;9.09;100.00;101690.78;6134221;23;20024;-83
2023/01/06 09:06:58;;;;;;;4.53;1.75;;;;;;;9.10;100.00;101700.25;6137029;23;20077;-81
2023/01/06 09:09:25;;;;;;;5.93;1.38;;;;;;;9.09;100.00;101696.09;6161838;23;20014;-80
2023/01/06 09:11:56;;;;;;;7.03;1.55;;;;;;;9.10;100.00;101699.50;6163331;23;20684;-80
2023/01/06 09:14:23;;;;;;;2.95;1.50;;;;;;;9.11;100.00;101698.34;6160109;23;20359;-80
2023/01/06 09:16:50;;;;;;;5.40;1.52;;;;;;;9.09;100.00;101704.06;6159355;23;20073;-80
2023/01/06 09:19:16;;;;;;;15.15;1.85;;;;;;;9.09;100.00;101709.38;6133857;23;20024;-80
2023/01/06 09:21:45;;;;;;;6.45;1.42;;;;;;;9.10;100.00;101708.22;6158290;23;20424;-80
2023/01/06 09:24:13;;;;;;;6.38;1.42;;;;;;;9.11;100.00;101701.75;6159991;23;20089;-80
2023/01/06 09:26:41;;;;;;;6.07;1.42;;;;;;;9.11;100.00;101703.66;6156898;23;20032;-80
2023/01/06 09:29:08;;;;;;;8.43;1.52;;;;;;;9.11;100.00;101708.97;6159799;23;20637;-80
2023/01/06 09:31:35;;;;;;;7.35;1.42;;;;;;;9.12;100.00;101710.47;6160056;23;20356;-79
2023/01/06 09:34:02;;;;;;;7.43;1.55;;;;;;;9.13;100.00;101711.97;6159581;23;20452;-79
2023/01/06 09:36:28;;;;;;;9.90;1.30;;;;;;;9.13;100.00;101720.69;6159146;23;20022;-78
2023/01/06 09:38:55;;;;;;;10.18;1.27;;;;;;;9.15;100.00;101723.69;6133103;23;20388;-79
2023/01/06 09:42:00;;;;;;;8.73;1.70;;;;;;;9.17;100.00;101732.00;6159102;23;20021;-80
2023/01/06 09:44:32;;;;;;;10.70;1.88;;;;;;;9.17;100.00;101736.56;6133880;23;20022;-80
2023/01/06 09:47:01;;;;;;;9.95;2.50;;;;;;;9.18;100.00;101743.38;6158922;23;20030;-81
2023/01/06 09:50:01;;;;;;;7.65;2.30;;;;;;;9.20;100.00;101749.78;6108252;23;20516;-81
2023/01/06 09:52:51;;;;;;;5.97;1.55;;;;;;;9.21;100.00;101750.53;6133306;23;20419;-80
2023/01/06 09:55:33;;;;;;;13.18;3.08;;;;;;;9.23;100.00;101754.28;6159636;23;20014;-82
2023/01/06 09:58:13;;;;;;;9.35;3.80;;;;;;;9.23;100.00;101756.19;6159499;23;20018;-79
2023/01/06 10:00:46;;;;;;;8.43;2.65;;;;;;;9.24;100.00;101760.34;6159668;23;20062;-79
2023/01/06 10:03:15;;;;;;;9.10;1.92;;;;;;;9.26;100.00;101766.00;6159692;23;20539;-82
2023/01/06 10:06:24;;;;;;;7.38;1.70;;;;;;;9.27;100.00;101776.22;6111781;23;20046;-81
2023/01/06 10:09:05;;;;;;;4.28;2.75;;;;;;;9.28;100.00;101769.75;6159759;23;20527;-82
2023/01/06 10:12:02;;;;;;;7.45;1.98;;;;;;;9.27;100.00;101770.16;6159387;23;20046;-81
2023/01/06 10:14:38;;;;;;;9.27;3.20;;;;;;;9.27;99.72;101778.88;6108683;23;20073;-80
2023/01/06 10:17:27;;;;;;;7.90;2.85;;;;;;;9.28;99.53;101777.72;6159352;23;20432;-80
2023/01/06 10:20:04;;;;;;;5.97;1.35;;;;;;;9.30;98.21;101780.75;6158857;23;20475;-84
2023/01/06 10:23:03;;;;;;;5.95;1.17;;;;;;;9.28;97.95;101784.94;6159556;23;20018;-81
2023/01/06 10:25:34;;;;;;;10.60;2.25;;;;;;;9.25;97.80;101785.75;6068592;23;20023;-80
2023/01/06 10:28:12;;;;;;;7.22;1.50;;;;;;;9.28;97.35;101784.94;6068385;23;20200;-81
2023/01/06 10:30:46;;;;;;;6.03;2.05;;;;;;;9.29;96.86;101778.47;6069183;23;20109;-80
2023/01/06 10:33:23;;;;;;;2.97;1.20;;;;;;;9.33;97.05;101771.22;6068169;23;20062;-83
2023/01/06 10:35:54;;;;;;;7.30;1.63;;;;;;;9.32;95.76;101777.69;6068322;23;20019;-82
2023/01/06 10:38:31;;;;;;;3.60;1.53;;;;;;;9.36;95.95;101786.34;6044947;23;20019;-82
2023/01/06 10:41:11;;;;;;;93.85;66.38;;;;;;;9.40;95.12;101787.03;6068308;23;20228;-79
2023/01/06 10:43:37;;;;;;;18.75;12.00;;;;;;;9.47;94.42;101797.56;6068206;23;20760;-78
2023/01/06 10:46:04;;;;;;;6.28;2.63;;;;;;;9.52;93.74;101794.44;6068312;23;20391;-79
2023/01/06 10:48:32;;;;;;;6.63;2.28;;;;;;;9.56;93.09;101789.06;6044103;23;20469;-79
2023/01/06 10:51:21;;;;;;;5.65;1.75;;;;;;;9.57;92.55;101793.22;6068208;23;20080;-80
2023/01/06 10:53:48;;;;;;;4.57;1.92;;;;;;;9.58;91.82;101787.50;6069397;23;20030;-81
2023/01/06 10:56:17;;;;;;;5.07;1.55;;;;;;;9.62;91.11;101798.78;6069245;23;20020;-83
2023/01/06 10:58:48;;;;;;;6.90;1.50;;;;;;;9.61;90.56;101791.22;6069383;23;20638;-83
2023/01/06 11:01:22;;;;;;;2.90;1.30;;;;;;;9.61;90.34;101791.22;6117678;23;20029;-84
2023/01/06 11:04:08;;;;;;;5.05;1.50;;;;;;;9.63;90.01;101786.25;6132512;23;20017;-84
2023/01/06 11:06:39;;;;;;;4.95;1.35;;;;;;;9.64;89.53;101785.84;6133139;23;20030;-83
2023/01/06 11:09:20;;;;;;;5.85;1.27;;;;;;;9.65;89.24;101790.00;6160051;23;20459;-83
2023/01/06 11:11:49;;;;;;;4.65;0.90;;;;;;;9.66;89.64;101794.16;6134221;23;20026;-84
2023/01/06 11:14:19;;;;;;;8.48;1.45;;;;;;;9.63;89.04;101792.31;6133243;23;20014;-83
2023/01/06 11:16:58;;;;;;;3.17;1.08;;;;;;;9.61;88.14;101791.22;6132922;23;20018;-81
2023/01/06 11:19:36;;;;;;;5.05;1.20;;;;;;;9.63;88.11;101789.66;6159763;23;20014;-80
2023/01/06 11:22:24;;;;;;;5.18;1.02;;;;;;;9.62;87.50;101790.06;6159558;23;20022;-80
2023/01/06 11:24:53;;;;;;;5.68;0.90;;;;;;;9.61;87.46;101786.66;6158435;23;20014;-78
2023/01/06 11:27:19;;;;;;;5.13;0.70;;;;;;;9.65;87.28;101792.66;6157604;23;20026;-80
2023/01/06 11:29:46;;;;;;;6.55;1.10;;;;;;;9.67;86.70;101787.69;6159294;23;20413;-77
2023/01/06 11:32:20;;;;;;;5.35;1.02;;;;;;;9.70;87.41;101786.88;6156916;23;20018;-80
2023/01/06 11:34:54;;;;;;;1.83;1.08;;;;;;;9.74;86.98;101783.41;6161101;23;20368;-81
2023/01/06 11:37:57;;;;;;;6.07;2.42;;;;;;;9.77;87.03;101790.56;6160155;23;20428;-82
2023/01/06 11:40:32;;;;;;;4.70;1.50;;;;;;;9.83;87.10;101786.28;6115502;23;20447;-87
2023/01/06 11:43:05;;;;;;;1.70;0.95;;;;;;;9.87;86.48;101781.66;6159090;23;20026;-80
2023/01/06 11:45:53;;;;;;;6.95;1.00;;;;;;;9.89;86.83;101780.09;6131627;23;20026;-82
2023/01/06 11:48:31;;;;;;;2.15;0.85;;;;;;;9.97;86.92;101786.03;6132911;23;20018;-83
2023/01/06 11:50:59;;;;;;;7.15;1.30;;;;;;;9.96;86.20;101771.22;6158688;23;20440;-80